Weather History for KPAN - October, 2012

Change the Weather History Date:

Friday, October 5, 2012

  Actual Average Record
Temperature  
Mean Temperature 64 °F -  
Max Temperature 77 °F 80 °F 78 °F (2014)
Min Temperature 50 °F 43 °F 42 °F (2013)
Degree Days  
Heating Degree Days 2    
Growing Degree Days 14 (Base 50)    
Moisture  
Dew Point 30 °F    
Average Humidity 30    
Maximum Humidity 50    
Minimum Humidity 16    
Precipitation  
Precipitation 0.00 in - - ()
Sea Level Pressure  
Sea Level Pressure 30.19 in    
Wind  
Wind Speed 3 mph (West)    
Max Wind Speed 14 mph    
Max Gust Speed 20 mph    
Visibility 10 miles    
Events      
Averages and records for this station are not official NWS values.
T = Trace of Precipitation, MM = Missing Value Source: NWS Daily Summary

Daily Weather History Graph

Daily Weather History Graph

Search for Another Location

Airport or City:

Trip Planner

Search our weather history database for the weather conditions in past years. The results will help you decide how hot, cold, wet, or windy it might be!

Date:

Astronomy

Oct. 05, 2012 Rise Set
Actual Time 6:23 AM MST 6:03 PM MST
Civil Twilight 5:58 AM MST 6:28 PM MST
Nautical Twilight 5:29 AM MST 6:57 PM MST
Astronomical Twilight 5:00 AM MST 7:26 PM MST
Moon 9:42 PM MST (10/5) 11:21 AM MST (10/5)
Length of Visible Light 12h 30m
Length of Day
11h 40m
Waning Gibbous, 73% of the Moon is Illuminated
Oct 5
Waning Gibbous
Oct 8
Last Quarter
Oct 15
New
Oct 21
First Quarter
Oct 29
Full

Hourly Weather History & Observations

Time (MST) Temp. Dew Point Humidity Pressure Visibility Wind Dir Wind Speed Gust Speed Precip Events Conditions
12:15 AM 53.6 °F 32.0 °F 44% 30.22 in 10.0 mi WNW 3.5 mph - N/A   Clear
12:35 AM 55.4 °F 32.0 °F 41% 30.22 in 10.0 mi NW 3.5 mph - N/A   Clear
12:55 AM 57.2 °F 32.0 °F 38% 30.22 in 10.0 mi Calm Calm - N/A   Clear
1:15 AM 55.4 °F 32.0 °F 41% 30.22 in 10.0 mi Calm Calm - N/A   Clear
1:35 AM 55.4 °F 32.0 °F 41% 30.22 in 10.0 mi Calm Calm - N/A   Clear
1:55 AM 55.4 °F 32.0 °F 41% 30.22 in 10.0 mi Calm Calm - N/A   Clear
2:15 AM 55.4 °F 32.0 °F 41% 30.21 in 10.0 mi Calm Calm - N/A   Clear
2:35 AM 55.4 °F 32.0 °F 41% 30.21 in 10.0 mi Calm Calm - N/A   Clear
2:55 AM 53.6 °F 32.0 °F 44% 30.21 in 10.0 mi Calm Calm - N/A   Clear
3:15 AM 55.4 °F 32.0 °F 41% 30.21 in 10.0 mi Calm Calm - N/A   Clear
3:35 AM 53.6 °F 32.0 °F 44% 30.20 in 10.0 mi Calm Calm - N/A   Clear
3:55 AM 55.4 °F 32.0 °F 41% 30.20 in 10.0 mi Calm Calm - N/A   Clear
4:15 AM 53.6 °F 32.0 °F 44% 30.20 in 10.0 mi WNW 3.5 mph - N/A   Clear
4:35 AM 51.8 °F 32.0 °F 47% 30.21 in 10.0 mi Calm Calm - N/A   Clear
4:55 AM 51.8 °F 32.0 °F 47% 30.21 in 10.0 mi NW 3.5 mph - N/A   Clear
5:15 AM 51.8 °F 32.0 °F 47% 30.21 in 10.0 mi Calm Calm - N/A   Clear
5:35 AM 53.6 °F 32.0 °F 44% 30.22 in 10.0 mi Calm Calm - N/A   Clear
5:55 AM 53.6 °F 32.0 °F 44% 30.22 in 10.0 mi WNW 3.5 mph - N/A   Clear
6:15 AM 50.0 °F 32.0 °F 50% 30.22 in 10.0 mi NW 3.5 mph - N/A   Clear
6:35 AM 50.0 °F 32.0 °F 50% 30.22 in 10.0 mi Calm Calm - N/A   Clear
6:55 AM 50.0 °F 32.0 °F 50% 30.23 in 10.0 mi Calm Calm - N/A   Clear
7:15 AM 53.6 °F 33.8 °F 47% 30.23 in 10.0 mi Calm Calm - N/A   Clear
7:35 AM 55.4 °F 33.8 °F 44% 30.23 in 10.0 mi Calm Calm - N/A   Clear
7:55 AM 59.0 °F 33.8 °F 39% 30.23 in 10.0 mi Calm Calm - N/A   Clear
8:15 AM 62.6 °F 35.6 °F 37% 30.23 in 10.0 mi Calm Calm - N/A   Clear
8:35 AM 66.2 °F 32.0 °F 28% 30.24 in 10.0 mi Calm Calm - N/A   Clear
8:55 AM 68.0 °F 32.0 °F 26% 30.24 in 10.0 mi Calm Calm - N/A   Clear
9:15 AM 69.8 °F 32.0 °F 25% 30.24 in 10.0 mi Calm Calm - N/A   Clear
9:35 AM 71.6 °F 32.0 °F 23% 30.24 in 9.0 mi West 3.5 mph - N/A   Clear
9:55 AM 71.6 °F 32.0 °F 23% 30.24 in 10.0 mi South 5.8 mph - N/A   Clear
10:15 AM 73.4 °F 32.0 °F 22% 30.24 in 10.0 mi WSW 8.1 mph - N/A   Clear
10:35 AM 73.4 °F 30.2 °F 20% 30.24 in 10.0 mi WSW 8.1 mph - N/A   Clear
10:55 AM 73.4 °F 30.2 °F 20% 30.23 in 10.0 mi West 8.1 mph - N/A   Clear
11:35 AM 73.4 °F 30.2 °F 20% 30.22 in 10.0 mi West 8.1 mph - N/A   Clear
11:55 AM 75.2 °F 30.2 °F 19% 30.21 in 10.0 mi West 10.4 mph - N/A   Clear
12:15 PM 73.4 °F 30.2 °F 20% 30.20 in 10.0 mi West 5.8 mph - N/A   Partly Cloudy
12:35 PM 75.2 °F 30.2 °F 19% 30.19 in 10.0 mi WNW 6.9 mph - N/A   Clear
12:55 PM 75.2 °F 28.4 °F 18% 30.19 in 10.0 mi West 10.4 mph - N/A   Partly Cloudy
1:15 PM 75.2 °F 30.2 °F 19% 30.18 in 10.0 mi WNW 9.2 mph - N/A   Clear
1:35 PM 77.0 °F 28.4 °F 17% 30.17 in 10.0 mi West 11.5 mph - N/A   Scattered Clouds
1:55 PM 77.0 °F 26.6 °F 16% 30.16 in 10.0 mi West 10.4 mph - N/A   Scattered Clouds
2:15 PM 77.0 °F 26.6 °F 16% 30.16 in 10.0 mi West 9.2 mph - N/A   Partly Cloudy
2:35 PM 77.0 °F 26.6 °F 16% 30.15 in 10.0 mi WSW 5.8 mph - N/A   Clear
3:15 PM 77.0 °F 28.4 °F 17% 30.14 in 10.0 mi NW 9.2 mph - N/A   Clear
3:35 PM 77.0 °F 28.4 °F 17% 30.13 in 10.0 mi WNW 11.5 mph - N/A   Clear
3:55 PM 77.0 °F 28.4 °F 17% 30.13 in 10.0 mi WNW 13.8 mph 19.6 mph N/A   Clear
4:15 PM 75.2 °F 28.4 °F 18% 30.13 in 10.0 mi WNW 11.5 mph - N/A   Clear
4:35 PM 75.2 °F 28.4 °F 18% 30.13 in 10.0 mi West 8.1 mph 17.3 mph N/A   Clear
4:55 PM 75.2 °F 28.4 °F 18% 30.13 in 10.0 mi West 9.2 mph - N/A   Clear
5:15 PM 73.4 °F 28.4 °F 19% 30.13 in 10.0 mi West 8.1 mph - N/A   Clear
5:35 PM 73.4 °F 26.6 °F 18% 30.13 in 10.0 mi West 9.2 mph - N/A   Clear
5:55 PM 71.6 °F 26.6 °F 19% 30.13 in 10.0 mi West 6.9 mph - N/A   Clear
6:15 PM 69.8 °F 26.6 °F 20% 30.14 in 10.0 mi West 5.8 mph - N/A   Clear
6:35 PM 69.8 °F 26.6 °F 20% 30.14 in 10.0 mi West 5.8 mph - N/A   Clear
6:55 PM 66.2 °F 28.4 °F 24% 30.14 in 10.0 mi West 5.8 mph - N/A   Clear
7:15 PM 66.2 °F 28.4 °F 24% 30.15 in 10.0 mi West 3.5 mph - N/A   Clear
7:35 PM 66.2 °F 28.4 °F 24% 30.15 in 10.0 mi Calm Calm - N/A   Clear
7:55 PM 66.2 °F 28.4 °F 24% 30.15 in 10.0 mi West 3.5 mph - N/A   Clear
8:35 PM 66.2 °F 26.6 °F 23% 30.15 in 10.0 mi Calm Calm - N/A   Clear
8:55 PM 64.4 °F 28.4 °F 26% 30.15 in 10.0 mi Calm Calm - N/A   Clear
9:15 PM 64.4 °F 28.4 °F 26% 30.15 in 10.0 mi Calm Calm - N/A   Clear
9:55 PM 62.6 °F 28.4 °F 27% 30.15 in 10.0 mi Calm Calm - N/A   Clear
10:15 PM 60.8 °F 28.4 °F 29% 30.15 in 10.0 mi Calm Calm - N/A   Clear
10:35 PM 60.8 °F 28.4 °F 29% 30.15 in 10.0 mi Calm Calm - N/A   Clear
10:55 PM 59.0 °F 28.4 °F 31% 30.15 in 10.0 mi Calm Calm - N/A   Clear
11:15 PM 57.2 °F 28.4 °F 33% 30.14 in 10.0 mi Calm Calm - N/A   Clear
11:55 PM 55.4 °F 28.4 °F 36% 30.14 in 10.0 mi WNW 3.5 mph - N/A   Clear